Time;durP1;ratioP1;P1;durP2;ratioP2;P2;SDS_P1;SDS_P2;PMS_P1;PMS_P2;Temp;Humidity;BMP_temperature;BMP_pressure;BME280_temperature;BME280_humidity;BME280_pressure;Samples;Min_cycle;Max_cycle;Signal;HPM_P1;HPM_P2
2023/01/16 00:55:58;;;;;;;3.90;2.60;;;4.10;99.90;;;;;;8382753;23;20236;-87
2023/01/16 00:59:44;;;;;;;4.23;2.47;;;4.20;99.90;;;;;;7748062;28;20227;-87
2023/01/16 01:03:30;;;;;;;4.07;2.50;;;4.20;99.90;;;;;;7749739;28;20200;-88
2023/01/16 01:07:15;;;;;;;4.97;2.50;;;4.10;99.90;;;;;;7747320;28;20188;-88
2023/01/16 01:11:13;;;;;;;3.93;2.50;;;4.10;99.90;;;;;;7786564;23;20232;-86
2023/01/16 01:14:59;;;;;;;4.83;2.60;;;4.10;99.90;;;;;;7746995;28;20214;-86
2023/01/16 01:18:44;;;;;;;4.03;2.30;;;4.10;99.90;;;;;;7746558;28;20220;-87
2023/01/16 01:22:30;;;;;;;6.43;2.53;;;4.00;99.90;;;;;;7748126;28;20262;-87
2023/01/16 01:26:17;;;;;;;3.67;2.20;;;4.00;99.90;;;;;;7747976;28;20176;-87
2023/01/16 01:30:03;;;;;;;3.60;1.90;;;4.00;99.90;;;;;;7746142;28;20575;-87
2023/01/16 01:33:48;;;;;;;3.77;2.10;;;4.00;99.90;;;;;;7746825;28;20282;-86
2023/01/16 01:37:35;;;;;;;4.37;2.53;;;3.90;99.90;;;;;;7742128;28;20560;-86
2023/01/16 01:41:20;;;;;;;4.03;2.10;;;4.10;99.90;;;;;;7747472;28;20287;-87
2023/01/16 01:45:11;;;;;;;4.27;2.20;;;4.20;99.90;;;;;;7746194;28;20184;-87
2023/01/16 01:49:04;;;;;;;4.83;2.60;;;4.00;99.90;;;;;;7746055;28;20303;-87
2023/01/16 01:52:50;;;;;;;6.60;2.63;;;4.00;99.90;;;;;;7746377;28;20187;-87
2023/01/16 01:56:51;;;;;;;6.37;3.13;;;4.00;99.90;;;;;;7746615;28;20184;-86
2023/01/16 02:00:37;;;;;;;4.93;2.80;;;4.00;99.90;;;;;;7745718;28;20224;-86
2023/01/16 02:04:32;;;;;;;5.13;3.40;;;3.90;99.90;;;;;;7746015;28;20234;-86
2023/01/16 02:08:20;;;;;;;5.60;3.23;;;3.90;99.90;;;;;;7745448;28;20226;-87
2023/01/16 02:12:15;;;;;;;5.53;3.60;;;3.90;99.90;;;;;;7747795;28;20248;-87
2023/01/16 02:20:24;;;;;;;5.70;3.60;;;3.70;99.90;;;;;;7745683;28;20212;-87
2023/01/16 02:24:19;;;;;;;4.50;3.10;;;3.70;99.90;;;;;;7745215;28;20625;-86
2023/01/16 02:28:26;;;;;;;5.87;3.13;;;3.70;99.90;;;;;;7746112;28;20673;-87
2023/01/16 02:32:35;;;;;;;6.63;2.90;;;3.70;99.90;;;;;;7745286;28;20219;-88
2023/01/16 02:36:45;;;;;;;3.97;2.70;;;3.60;99.90;;;;;;7739188;28;20195;-87
2023/01/16 02:40:40;;;;;;;7.10;3.37;;;3.70;99.90;;;;;;7744548;28;20277;-87
2023/01/16 02:44:50;;;;;;;3.70;2.63;;;3.70;99.90;;;;;;7744730;28;20178;-87
2023/01/16 02:49:06;;;;;;;3.90;2.70;;;3.70;99.90;;;;;;7744434;28;20214;-87
2023/01/16 02:53:13;;;;;;;3.83;2.47;;;3.60;99.90;;;;;;7745224;28;20184;-87
2023/01/16 02:57:18;;;;;;;4.90;2.50;;;3.60;99.90;;;;;;7745628;28;20229;-88
2023/01/16 03:01:05;;;;;;;6.40;2.30;;;3.50;99.90;;;;;;7744424;28;20297;-87
2023/01/16 03:04:53;;;;;;;5.33;2.30;;;3.60;99.90;;;;;;7745568;28;20176;-87
2023/01/16 03:08:56;;;;;;;4.73;2.10;;;3.50;99.90;;;;;;7743703;28;20286;-87
2023/01/16 03:13:15;;;;;;;4.17;2.63;;;3.50;99.90;;;;;;7744201;28;20192;-87
2023/01/16 03:17:20;;;;;;;3.73;2.57;;;3.50;99.90;;;;;;7743670;28;20192;-87
2023/01/16 03:21:40;;;;;;;5.53;2.53;;;3.40;99.90;;;;;;7743907;28;20569;-86
2023/01/16 03:25:35;;;;;;;4.30;2.40;;;3.40;99.90;;;;;;7740047;28;20303;-87
2023/01/16 03:29:38;;;;;;;3.60;2.07;;;3.40;99.90;;;;;;7743275;28;20203;-87
2023/01/16 03:33:58;;;;;;;5.23;1.90;;;3.40;99.90;;;;;;7749476;28;20193;-87
2023/01/16 03:37:54;;;;;;;3.37;2.20;;;3.40;99.90;;;;;;7743199;28;20220;-87
2023/01/16 03:41:41;;;;;;;5.77;2.60;;;3.40;99.90;;;;;;7751269;28;20175;-87
2023/01/16 03:45:34;;;;;;;7.43;2.63;;;3.40;99.90;;;;;;7750882;28;20183;-87
2023/01/16 03:49:32;;;;;;;4.87;2.47;;;3.40;99.90;;;;;;7749216;28;20215;-87
2023/01/16 03:53:21;;;;;;;4.80;2.23;;;3.30;99.90;;;;;;7751204;28;20188;-87
2023/01/16 03:57:10;;;;;;;2.53;2.00;;;3.30;99.90;;;;;;7750100;28;20274;-87
2023/01/16 04:01:01;;;;;;;3.40;2.23;;;3.30;99.90;;;;;;7747130;28;20243;-88
2023/01/16 04:04:58;;;;;;;6.13;2.50;;;3.30;99.90;;;;;;7747060;28;20184;-87
2023/01/16 04:08:45;;;;;;;4.83;2.00;;;3.30;99.90;;;;;;7748222;28;20227;-88
2023/01/16 04:12:36;;;;;;;2.73;2.37;;;3.30;99.90;;;;;;7748384;28;20824;-88
2023/01/16 04:16:22;;;;;;;5.30;2.37;;;3.20;99.90;;;;;;7748782;28;20555;-88
2023/01/16 04:20:10;;;;;;;5.40;2.17;;;3.20;99.90;;;;;;7747248;28;20848;-87
2023/01/16 04:23:57;;;;;;;4.33;2.50;;;3.20;99.90;;;;;;7748035;28;20230;-88
2023/01/16 04:27:43;;;;;;;5.83;2.47;;;3.20;99.90;;;;;;7747039;28;20184;-87
2023/01/16 04:31:28;;;;;;;4.20;2.80;;;3.30;99.90;;;;;;7748634;28;20661;-88
2023/01/16 04:35:14;;;;;;;6.67;2.53;;;3.10;99.90;;;;;;7747559;28;20184;-87
2023/01/16 04:39:00;;;;;;;5.23;2.40;;;3.10;99.90;;;;;;7746828;28;20219;-87
2023/01/16 04:42:45;;;;;;;4.27;2.10;;;3.00;99.90;;;;;;7746665;28;20279;-88
2023/01/16 04:46:31;;;;;;;4.10;2.03;;;3.10;99.90;;;;;;7746818;28;20551;-88
2023/01/16 04:50:18;;;;;;;4.80;2.27;;;3.00;99.90;;;;;;7747470;28;20260;-88
2023/01/16 04:54:06;;;;;;;3.37;1.90;;;3.10;99.90;;;;;;7746429;28;20204;-88
2023/01/16 04:57:51;;;;;;;4.37;2.30;;;3.00;99.90;;;;;;7733257;28;20609;-88
2023/01/16 05:01:37;;;;;;;3.83;2.33;;;2.90;99.90;;;;;;7737791;28;20196;-87
2023/01/16 05:05:23;;;;;;;4.17;1.97;;;3.00;99.90;;;;;;7744576;28;20274;-88
2023/01/16 05:09:09;;;;;;;6.33;2.50;;;3.00;99.90;;;;;;7747214;28;20731;-87
2023/01/16 05:12:54;;;;;;;4.67;2.40;;;3.00;99.90;;;;;;7743502;28;20641;-87
2023/01/16 05:16:43;;;;;;;4.07;2.40;;;3.00;99.90;;;;;;7745843;28;20283;-87
2023/01/16 05:20:29;;;;;;;3.53;2.37;;;3.00;99.90;;;;;;7746530;28;20306;-87
2023/01/16 05:24:14;;;;;;;2.97;1.83;;;3.10;99.90;;;;;;7738361;28;20184;-87
2023/01/16 05:28:00;;;;;;;11.17;2.10;;;3.10;99.90;;;;;;7746872;28;20231;-88
2023/01/16 05:31:46;;;;;;;2.70;1.70;;;3.00;99.90;;;;;;7747338;28;20274;-87
2023/01/16 05:35:31;;;;;;;4.47;1.87;;;3.10;99.90;;;;;;7747834;28;20188;-88
2023/01/16 05:39:17;;;;;;;2.50;1.90;;;3.00;99.90;;;;;;7745775;28;20243;-87
2023/01/16 05:43:03;;;;;;;2.63;1.80;;;3.00;99.90;;;;;;7746637;28;20271;-88
2023/01/16 05:46:50;;;;;;;3.53;2.20;;;3.00;99.90;;;;;;7746769;28;20277;-88
2023/01/16 05:50:36;;;;;;;2.73;1.80;;;2.90;99.90;;;;;;7743219;28;20219;-87
2023/01/16 05:54:21;;;;;;;1.77;1.57;;;3.00;99.90;;;;;;7744894;28;20200;-88
2023/01/16 05:58:10;;;;;;;4.07;1.53;;;2.80;99.90;;;;;;7744586;28;20235;-89
2023/01/16 06:01:56;;;;;;;2.43;1.80;;;2.80;99.90;;;;;;7744890;28;20195;-88
2023/01/16 06:05:42;;;;;;;5.67;2.07;;;2.80;99.90;;;;;;7745241;28;20630;-88
2023/01/16 06:09:28;;;;;;;3.17;2.07;;;2.70;99.90;;;;;;7736555;28;20227;-88
2023/01/16 06:13:14;;;;;;;5.13;1.90;;;2.70;99.90;;;;;;7745739;28;20642;-87
2023/01/16 06:16:59;;;;;;;6.10;1.87;;;2.70;99.90;;;;;;7744404;28;20242;-88
2023/01/16 06:20:45;;;;;;;7.30;2.30;;;2.70;99.90;;;;;;7745494;28;20314;-88
2023/01/16 06:24:31;;;;;;;2.50;1.70;;;2.80;99.90;;;;;;7745076;28;20184;-88
2023/01/16 06:28:17;;;;;;;2.20;1.80;;;2.80;99.90;;;;;;7743930;28;20208;-89
2023/01/16 06:32:02;;;;;;;3.90;2.10;;;2.80;99.90;;;;;;7734338;28;20184;-88
2023/01/16 06:35:48;;;;;;;4.93;2.03;;;2.80;99.90;;;;;;7744621;28;20203;-88
2023/01/16 06:39:34;;;;;;;5.47;2.10;;;2.90;99.90;;;;;;7744064;28;20725;-88
2023/01/16 06:43:20;;;;;;;3.07;2.00;;;2.80;99.90;;;;;;7744729;28;20224;-88
2023/01/16 06:47:06;;;;;;;3.40;2.00;;;2.80;99.90;;;;;;7743153;28;20681;-88
2023/01/16 06:50:53;;;;;;;5.13;1.70;;;2.70;99.90;;;;;;7743662;28;20211;-88
2023/01/16 06:54:38;;;;;;;3.83;1.90;;;2.80;99.90;;;;;;7743346;28;20192;-88
2023/01/16 06:58:24;;;;;;;4.63;2.60;;;2.80;99.90;;;;;;7737907;28;20302;-88
2023/01/16 07:02:10;;;;;;;3.87;2.13;;;2.80;99.90;;;;;;7743836;28;20331;-88
2023/01/16 07:05:55;;;;;;;6.37;2.60;;;2.70;99.90;;;;;;7744195;28;20192;-88
2023/01/16 07:13:29;;;;;;;5.43;2.57;;;2.70;99.90;;;;;;7743562;28;20222;-88
2023/01/16 07:25:34;;;;;;;5.73;2.60;;;2.80;99.90;;;;;;7744778;28;20187;-89
2023/01/16 07:29:20;;;;;;;8.10;3.03;;;2.90;99.90;;;;;;7752393;28;20580;-87
2023/01/16 07:33:05;;;;;;;7.83;2.53;;;2.80;99.90;;;;;;7762378;28;20514;-88
2023/01/16 07:36:51;;;;;;;3.70;2.37;;;2.80;99.90;;;;;;7754502;28;20628;-87
2023/01/16 07:40:37;;;;;;;4.47;2.50;;;2.80;99.90;;;;;;7751526;28;20216;-87
2023/01/16 07:44:22;;;;;;;5.67;2.30;;;2.80;99.90;;;;;;7760866;28;20233;-88
2023/01/16 07:48:08;;;;;;;3.50;2.10;;;2.90;99.90;;;;;;7769324;28;20262;-90
2023/01/16 07:51:53;;;;;;;3.60;2.30;;;2.90;99.90;;;;;;7760640;28;20192;-88
2023/01/16 07:55:39;;;;;;;4.87;2.27;;;2.90;99.90;;;;;;7755843;28;20184;-89
2023/01/16 07:59:25;;;;;;;4.17;2.23;;;3.00;99.90;;;;;;7759840;28;20734;-88
2023/01/16 08:03:11;;;;;;;3.97;2.20;;;2.90;99.90;;;;;;7756350;28;20188;-87
2023/01/16 08:06:56;;;;;;;4.10;2.27;;;2.90;99.90;;;;;;7763148;28;20278;-87
2023/01/16 08:10:42;;;;;;;3.97;2.23;;;2.90;99.90;;;;;;7762306;28;20226;-88
2023/01/16 08:14:28;;;;;;;5.00;2.53;;;3.10;99.90;;;;;;7756599;28;20187;-88
2023/01/16 08:18:14;;;;;;;4.77;2.43;;;2.90;99.90;;;;;;7751615;28;20222;-87
2023/01/16 08:22:00;;;;;;;3.63;2.30;;;2.90;99.90;;;;;;7757570;28;20239;-88
2023/01/16 08:25:49;;;;;;;3.10;2.50;;;2.90;99.90;;;;;;7766359;28;20267;-88
2023/01/16 08:29:35;;;;;;;6.30;2.87;;;2.80;99.90;;;;;;7763489;28;20630;-90
2023/01/16 08:33:20;;;;;;;3.53;2.27;;;2.90;99.90;;;;;;7777194;28;20188;-88
2023/01/16 08:37:07;;;;;;;6.33;2.43;;;3.00;99.90;;;;;;7773168;28;20561;-89
2023/01/16 08:40:52;;;;;;;4.47;2.07;;;3.00;99.90;;;;;;7762553;28;20223;-87
2023/01/16 08:52:46;;;;;;;3.73;1.43;;;3.00;99.90;;;;;;7747707;28;20196;-88
2023/01/16 08:56:32;;;;;;;4.13;1.37;;;3.00;99.90;;;;;;7753575;28;20234;-88
2023/01/16 09:00:19;;;;;;;2.27;1.30;;;3.00;99.90;;;;;;7762075;28;20220;-89
2023/01/16 09:04:06;;;;;;;5.33;1.60;;;3.10;99.90;;;;;;7775110;28;20183;-89
2023/01/16 09:07:51;;;;;;;4.30;1.30;;;3.00;99.90;;;;;;7760922;28;20657;-89
2023/01/16 09:16:04;;;;;;;4.70;1.50;;;3.10;99.90;;;;;;7672604;29;20248;-89
2023/01/16 09:19:50;;;;;;;1.97;1.20;;;3.10;99.90;;;;;;7663188;28;20368;-89
2023/01/16 09:23:36;;;;;;;4.40;1.20;;;3.10;99.90;;;;;;7668673;29;20189;-88
2023/01/16 09:27:24;;;;;;;7.73;1.97;;;3.10;99.90;;;;;;7647941;28;20193;-88
2023/01/16 09:31:09;;;;;;;3.57;1.80;;;3.20;99.90;;;;;;7664372;29;20209;-88
2023/01/16 09:34:55;;;;;;;2.33;1.30;;;3.20;99.90;;;;;;7652763;28;20193;-88
2023/01/16 09:38:41;;;;;;;2.73;1.30;;;3.30;99.90;;;;;;7650315;29;20648;-89
2023/01/16 09:46:51;;;;;;;3.30;1.00;;;3.30;99.90;;;;;;7695189;28;20185;-88
2023/01/16 09:50:42;;;;;;;6.80;1.30;;;3.40;99.90;;;;;;7715257;28;20212;-89
2023/01/16 09:58:47;;;;;;;4.43;1.37;;;3.50;99.90;;;;;;7747300;28;20708;-89
2023/01/16 10:02:33;;;;;;;2.20;1.07;;;3.50;99.90;;;;;;7760000;28;20611;-89
2023/01/16 10:06:37;;;;;;;3.30;1.07;;;3.60;99.90;;;;;;7751998;28;20711;-88
2023/01/16 10:10:41;;;;;;;1.83;1.03;;;3.60;99.90;;;;;;7743569;28;20211;-89
2023/01/16 10:14:51;;;;;;;2.17;1.13;;;3.70;99.90;;;;;;7753670;28;20671;-89
2023/01/16 10:19:01;;;;;;;5.57;1.20;;;3.80;99.90;;;;;;7774844;28;20213;-88
2023/01/16 10:22:56;;;;;;;5.93;1.50;;;3.90;99.90;;;;;;7763095;28;20188;-89
2023/01/16 10:26:53;;;;;;;3.70;1.60;;;3.90;99.90;;;;;;7764799;28;20286;-88
2023/01/16 10:30:53;;;;;;;7.00;1.20;;;3.90;99.90;;;;;;7758670;28;20223;-88
2023/01/16 10:34:56;;;;;;;6.40;1.60;;;4.00;99.90;;;;;;7756429;28;20188;-89
2023/01/16 10:38:51;;;;;;;1.87;1.13;;;4.00;99.90;;;;;;7760990;28;20777;-89
2023/01/16 10:50:48;;;;;;;3.03;1.13;;;4.20;99.90;;;;;;7758755;28;20707;-89
2023/01/16 10:54:34;;;;;;;2.13;1.00;;;4.20;99.90;;;;;;7760130;28;20702;-91
2023/01/16 10:58:31;;;;;;;2.90;0.97;;;4.30;99.90;;;;;;7751793;28;20216;-91
2023/01/16 11:02:23;;;;;;;2.03;0.90;;;4.40;99.90;;;;;;7759586;28;20176;-90
2023/01/16 11:06:15;;;;;;;5.47;1.30;;;4.50;99.90;;;;;;7756561;28;20219;-92
2023/01/16 11:10:01;;;;;;;3.97;1.07;;;4.50;99.90;;;;;;7758587;28;20266;-91
2023/01/16 11:22:09;;;;;;;3.03;0.90;;;4.70;99.90;;;;;;7745145;28;20196;-91
2023/01/16 11:25:57;;;;;;;3.53;1.03;;;4.80;99.90;;;;;;7754260;28;20189;-84
2023/01/16 11:29:43;;;;;;;3.10;0.93;;;4.80;99.90;;;;;;7755526;28;20226;-89
2023/01/16 11:33:35;;;;;;;4.87;1.10;;;4.80;99.90;;;;;;7758001;28;20665;-88
2023/01/16 11:37:22;;;;;;;2.13;0.90;;;4.90;99.90;;;;;;7748148;28;20187;-88
2023/01/16 11:41:08;;;;;;;2.13;1.00;;;5.00;99.90;;;;;;7743854;28;20215;-88
2023/01/16 11:49:22;;;;;;;2.40;1.30;;;5.00;99.90;;;;;;7746819;28;20475;-88
2023/01/16 11:53:09;;;;;;;2.73;1.20;;;5.00;99.90;;;;;;7756308;28;20187;-87
2023/01/16 11:57:04;;;;;;;3.33;1.47;;;5.10;99.90;;;;;;7759994;28;20187;-88
2023/01/16 12:00:58;;;;;;;5.23;1.70;;;5.10;99.90;;;;;;7758931;28;20219;-88
2023/01/16 12:09:32;;;;;;;6.43;1.60;;;5.10;99.90;;;;;;7740696;28;20689;-88
2023/01/16 12:17:38;;;;;;;4.10;1.20;;;5.20;99.90;;;;;;7747802;28;20192;-88
2023/01/16 12:22:04;;;;;;;3.33;1.60;;;5.20;99.90;;;;;;7761822;28;20363;-88
2023/01/16 12:26:29;;;;;;;2.17;1.30;;;5.30;99.90;;;;;;7730888;28;20545;-88
2023/01/16 12:30:29;;;;;;;6.60;1.43;;;5.20;99.90;;;;;;7624185;29;20222;-88
2023/01/16 12:34:15;;;;;;;2.83;1.20;;;5.30;99.90;;;;;;7645240;29;20813;-88
2023/01/16 12:38:06;;;;;;;3.73;1.40;;;5.30;99.90;;;;;;7612441;29;20194;-89
2023/01/16 12:46:20;;;;;;;5.00;1.30;;;5.30;99.90;;;;;;7647287;29;20203;-88
2023/01/16 12:50:18;;;;;;;5.23;1.57;;;5.30;99.90;;;;;;7615449;29;20271;-89
2023/01/16 12:54:30;;;;;;;2.63;1.40;;;5.40;99.90;;;;;;7609620;29;20217;-88
2023/01/16 12:58:24;;;;;;;4.23;1.70;;;5.30;99.90;;;;;;7609897;29;20286;-88
2023/01/16 13:02:12;;;;;;;3.87;1.60;;;5.30;99.90;;;;;;7609894;29;20222;-88
2023/01/16 13:05:58;;;;;;;3.43;1.77;;;5.30;99.90;;;;;;7669456;28;20200;-87
2023/01/16 13:09:44;;;;;;;4.37;1.73;;;5.30;99.90;;;;;;7716139;28;20216;-87
2023/01/16 13:13:36;;;;;;;3.03;1.40;;;5.40;99.90;;;;;;7730927;28;20246;-88
2023/01/16 13:17:27;;;;;;;5.57;1.80;;;5.30;99.90;;;;;;7749898;28;20196;-86
2023/01/16 13:21:18;;;;;;;5.97;1.70;;;5.40;99.90;;;;;;7777533;28;20230;-88
2023/01/16 13:25:19;;;;;;;3.83;1.67;;;5.30;99.90;;;;;;7777381;28;20571;-88
2023/01/16 13:29:24;;;;;;;3.90;1.60;;;5.30;99.90;;;;;;7757649;28;20694;-88
2023/01/16 13:33:19;;;;;;;4.07;1.50;;;5.30;99.90;;;;;;7753071;28;20207;-88
2023/01/16 13:37:41;;;;;;;5.53;1.73;;;5.30;99.90;;;;;;7746229;28;20238;-88
2023/01/16 13:41:35;;;;;;;5.37;1.40;;;5.30;99.90;;;;;;7753927;28;20692;-88
2023/01/16 13:45:50;;;;;;;5.50;1.60;;;5.30;99.90;;;;;;7746190;28;20271;-88
2023/01/16 13:49:37;;;;;;;2.87;1.40;;;5.30;99.90;;;;;;7746894;28;20205;-87
2023/01/16 13:53:24;;;;;;;3.57;1.53;;;5.20;99.90;;;;;;7757206;28;20717;-88
2023/01/16 13:57:17;;;;;;;1.90;1.27;;;5.20;99.90;;;;;;7775935;28;20274;-88
2023/01/16 14:01:06;;;;;;;3.63;1.60;;;5.20;99.90;;;;;;7756072;28;20216;-88
2023/01/16 14:05:06;;;;;;;3.53;1.30;;;5.00;99.90;;;;;;7783791;28;20179;-88
2023/01/16 14:09:04;;;;;;;5.90;1.43;;;5.00;99.90;;;;;;7774956;28;20551;-88
2023/01/16 14:13:02;;;;;;;3.13;1.50;;;4.90;99.90;;;;;;7775648;28;20202;-88
2023/01/16 14:17:00;;;;;;;6.20;1.40;;;4.80;99.90;;;;;;7774727;28;20223;-87
2023/01/16 14:20:51;;;;;;;3.77;1.73;;;4.80;99.90;;;;;;7741267;28;20228;-87
2023/01/16 14:24:43;;;;;;;8.00;1.93;;;4.80;99.90;;;;;;7744917;28;20203;-86
2023/01/16 14:28:29;;;;;;;3.63;1.33;;;4.80;99.90;;;;;;7775478;28;20207;-87
2023/01/16 14:32:24;;;;;;;5.37;1.50;;;4.80;99.90;;;;;;7775514;28;20198;-87
2023/01/16 14:36:13;;;;;;;4.23;1.50;;;4.80;99.90;;;;;;7754245;28;20290;-88
2023/01/16 14:40:10;;;;;;;6.70;1.60;;;4.70;99.90;;;;;;7748994;28;20207;-88
2023/01/16 14:56:50;;;;;;;4.63;1.83;;;4.60;99.90;;;;;;7733291;28;20218;-87
2023/01/16 15:00:39;;;;;;;2.53;1.57;;;4.60;99.90;;;;;;7751099;28;20309;-89
2023/01/16 15:04:37;;;;;;;3.10;1.47;;;4.60;99.90;;;;;;7760003;28;20294;-90
2023/01/16 15:08:30;;;;;;;3.37;1.60;;;4.60;99.90;;;;;;7736246;28;20191;-88
2023/01/16 15:12:17;;;;;;;4.93;1.73;;;4.60;99.90;;;;;;7774226;28;20676;-88
2023/01/16 15:16:07;;;;;;;3.30;1.77;;;4.60;99.90;;;;;;7774536;28;20180;-86
2023/01/16 15:24:06;;;;;;;5.20;2.00;;;4.60;99.90;;;;;;7776191;28;20544;-88
2023/01/16 15:28:19;;;;;;;4.93;1.67;;;4.60;99.90;;;;;;7777642;28;20249;-88
2023/01/16 15:36:49;;;;;;;3.40;1.90;;;4.50;99.90;;;;;;8669256;23;20717;-91
2023/01/16 15:40:35;;;;;;;2.50;1.50;;;4.50;99.90;;;;;;7729046;28;20204;-90
2023/01/16 15:48:40;;;;;;;5.57;1.90;;;4.40;99.90;;;;;;7743318;28;20224;-89
2023/01/16 18:01:03;;;;;;;3.50;1.97;;;4.00;99.90;;;;;;8712324;23;20240;-89
2023/01/16 18:04:50;;;;;;;3.00;1.80;;;4.00;99.90;;;;;;7757112;28;20239;-89
2023/01/16 18:08:35;;;;;;;3.87;1.70;;;4.00;99.90;;;;;;7732271;28;20204;-89
2023/01/16 19:51:45;;;;;;;2.60;2.10;;;3.70;99.90;;;;;;8554029;23;20711;-89
2023/01/16 19:55:31;;;;;;;3.13;2.00;;;3.80;99.90;;;;;;7745731;28;20192;-88
2023/01/16 19:59:17;;;;;;;3.53;1.90;;;3.70;99.90;;;;;;7744535;28;20227;-89
2023/01/16 20:03:04;;;;;;;2.40;1.73;;;3.70;99.90;;;;;;7743319;28;20212;-89
